sensor_id;sensor_type;location;lat;lon;timestamp;temperature;humidity
19085;DHT22;9675;51.538;6.728;2023-05-07T00:02:20;20.80;99.90
19085;DHT22;9675;51.538;6.728;2023-05-07T00:04:48;20.80;99.90
19085;DHT22;9675;51.538;6.728;2023-05-07T00:07:15;20.80;99.90
19085;DHT22;9675;51.538;6.728;2023-05-07T00:09:42;20.70;99.90
19085;DHT22;9675;51.538;6.728;2023-05-07T00:12:10;20.70;99.90
19085;DHT22;9675;51.538;6.728;2023-05-07T00:14:37;20.70;99.90
19085;DHT22;9675;51.538;6.728;2023-05-07T00:17:04;20.70;99.90
19085;DHT22;9675;51.538;6.728;2023-05-07T00:19:32;20.70;99.90
19085;DHT22;9675;51.538;6.728;2023-05-07T00:21:59;20.60;99.90
19085;DHT22;9675;51.538;6.728;2023-05-07T00:24:26;20.60;99.90
19085;DHT22;9675;51.538;6.728;2023-05-07T00:26:53;20.60;99.90
19085;DHT22;9675;51.538;6.728;2023-05-07T00:29:20;20.60;99.90
19085;DHT22;9675;51.538;6.728;2023-05-07T00:31:49;20.50;99.90
19085;DHT22;9675;51.538;6.728;2023-05-07T00:34:16;20.50;99.90
19085;DHT22;9675;51.538;6.728;2023-05-07T00:36:44;20.50;99.90
19085;DHT22;9675;51.538;6.728;2023-05-07T00:39:12;20.50;99.90
19085;DHT22;9675;51.538;6.728;2023-05-07T00:41:39;20.40;99.90
19085;DHT22;9675;51.538;6.728;2023-05-07T00:44:06;20.40;99.90
19085;DHT22;9675;51.538;6.728;2023-05-07T00:46:33;20.40;99.90
19085;DHT22;9675;51.538;6.728;2023-05-07T00:49:01;20.40;99.90
19085;DHT22;9675;51.538;6.728;2023-05-07T00:51:28;20.40;99.90
19085;DHT22;9675;51.538;6.728;2023-05-07T00:53:58;20.40;99.90
19085;DHT22;9675;51.538;6.728;2023-05-07T00:56:26;20.30;99.90
19085;DHT22;9675;51.538;6.728;2023-05-07T00:58:54;20.30;99.90
19085;DHT22;9675;51.538;6.728;2023-05-07T01:01:21;20.30;99.90
19085;DHT22;9675;51.538;6.728;2023-05-07T01:03:48;20.30;99.90
19085;DHT22;9675;51.538;6.728;2023-05-07T01:06:16;20.20;99.90
19085;DHT22;9675;51.538;6.728;2023-05-07T01:08:44;20.20;99.90
19085;DHT22;9675;51.538;6.728;2023-05-07T01:11:13;20.20;99.90
19085;DHT22;9675;51.538;6.728;2023-05-07T01:13:41;20.20;99.90
19085;DHT22;9675;51.538;6.728;2023-05-07T01:16:09;20.20;99.90
19085;DHT22;9675;51.538;6.728;2023-05-07T01:18:36;20.10;99.90
19085;DHT22;9675;51.538;6.728;2023-05-07T01:21:06;20.10;99.90
19085;DHT22;9675;51.538;6.728;2023-05-07T01:23:39;20.10;99.90
19085;DHT22;9675;51.538;6.728;2023-05-07T01:26:07;20.10;99.90
19085;DHT22;9675;51.538;6.728;2023-05-07T01:28:34;20.00;99.90
19085;DHT22;9675;51.538;6.728;2023-05-07T01:31:03;20.00;99.90
19085;DHT22;9675;51.538;6.728;2023-05-07T01:33:34;20.00;99.90
19085;DHT22;9675;51.538;6.728;2023-05-07T01:36:04;20.00;99.90
19085;DHT22;9675;51.538;6.728;2023-05-07T01:38:34;20.00;99.90
19085;DHT22;9675;51.538;6.728;2023-05-07T01:41:04;19.90;99.90
19085;DHT22;9675;51.538;6.728;2023-05-07T01:43:31;19.90;99.90
19085;DHT22;9675;51.538;6.728;2023-05-07T01:45:59;19.90;99.90
19085;DHT22;9675;51.538;6.728;2023-05-07T01:48:28;19.80;99.90
19085;DHT22;9675;51.538;6.728;2023-05-07T01:50:55;19.80;99.90
19085;DHT22;9675;51.538;6.728;2023-05-07T01:53:23;19.80;99.90
19085;DHT22;9675;51.538;6.728;2023-05-07T01:55:50;19.80;99.90
19085;DHT22;9675;51.538;6.728;2023-05-07T01:58:18;19.80;99.90
19085;DHT22;9675;51.538;6.728;2023-05-07T02:00:45;19.80;99.90
19085;DHT22;9675;51.538;6.728;2023-05-07T02:03:12;19.70;99.90
19085;DHT22;9675;51.538;6.728;2023-05-07T02:05:39;19.70;99.90
19085;DHT22;9675;51.538;6.728;2023-05-07T02:08:06;19.70;99.90
19085;DHT22;9675;51.538;6.728;2023-05-07T02:10:33;19.70;99.90
19085;DHT22;9675;51.538;6.728;2023-05-07T02:13:01;19.60;99.90
19085;DHT22;9675;51.538;6.728;2023-05-07T02:15:29;19.60;99.90
19085;DHT22;9675;51.538;6.728;2023-05-07T02:18:00;19.60;99.90
19085;DHT22;9675;51.538;6.728;2023-05-07T02:20:29;19.60;99.90
19085;DHT22;9675;51.538;6.728;2023-05-07T02:22:56;19.60;99.90
19085;DHT22;9675;51.538;6.728;2023-05-07T02:25:23;19.50;99.90
19085;DHT22;9675;51.538;6.728;2023-05-07T02:27:50;19.50;99.90
19085;DHT22;9675;51.538;6.728;2023-05-07T02:30:17;19.50;99.90
19085;DHT22;9675;51.538;6.728;2023-05-07T02:32:48;19.50;99.90
19085;DHT22;9675;51.538;6.728;2023-05-07T02:35:15;19.50;99.90
19085;DHT22;9675;51.538;6.728;2023-05-07T02:37:42;19.40;99.90
19085;DHT22;9675;51.538;6.728;2023-05-07T02:40:11;19.40;99.90
19085;DHT22;9675;51.538;6.728;2023-05-07T02:42:38;19.40;99.90
19085;DHT22;9675;51.538;6.728;2023-05-07T02:45:06;19.40;99.90
19085;DHT22;9675;51.538;6.728;2023-05-07T02:47:34;19.30;99.90
19085;DHT22;9675;51.538;6.728;2023-05-07T02:50:03;19.30;99.90
19085;DHT22;9675;51.538;6.728;2023-05-07T02:52:31;19.30;99.90
19085;DHT22;9675;51.538;6.728;2023-05-07T02:54:58;19.30;99.90
19085;DHT22;9675;51.538;6.728;2023-05-07T02:57:25;19.30;99.90
19085;DHT22;9675;51.538;6.728;2023-05-07T02:59:52;19.20;99.90
19085;DHT22;9675;51.538;6.728;2023-05-07T03:02:19;19.20;99.90
19085;DHT22;9675;51.538;6.728;2023-05-07T03:04:46;19.10;99.90
19085;DHT22;9675;51.538;6.728;2023-05-07T03:07:14;19.10;99.90
19085;DHT22;9675;51.538;6.728;2023-05-07T03:09:41;19.10;99.90
19085;DHT22;9675;51.538;6.728;2023-05-07T03:12:08;19.10;99.90
19085;DHT22;9675;51.538;6.728;2023-05-07T03:14:35;19.10;99.90
19085;DHT22;9675;51.538;6.728;2023-05-07T03:17:02;19.10;99.90
19085;DHT22;9675;51.538;6.728;2023-05-07T03:19:29;19.00;99.90
19085;DHT22;9675;51.538;6.728;2023-05-07T03:21:57;19.00;99.90
19085;DHT22;9675;51.538;6.728;2023-05-07T03:24:25;19.00;99.90
19085;DHT22;9675;51.538;6.728;2023-05-07T03:26:52;19.00;99.90
19085;DHT22;9675;51.538;6.728;2023-05-07T03:29:19;19.00;99.90
19085;DHT22;9675;51.538;6.728;2023-05-07T03:31:46;18.90;99.90
19085;DHT22;9675;51.538;6.728;2023-05-07T03:34:13;19.00;99.90
19085;DHT22;9675;51.538;6.728;2023-05-07T03:36:40;18.90;99.90
19085;DHT22;9675;51.538;6.728;2023-05-07T03:39:07;18.90;99.90
19085;DHT22;9675;51.538;6.728;2023-05-07T03:41:36;18.90;99.90
19085;DHT22;9675;51.538;6.728;2023-05-07T03:44:03;18.90;99.90
19085;DHT22;9675;51.538;6.728;2023-05-07T03:46:30;18.80;99.90
19085;DHT22;9675;51.538;6.728;2023-05-07T03:48:58;18.80;99.90
19085;DHT22;9675;51.538;6.728;2023-05-07T03:51:25;18.80;99.90
19085;DHT22;9675;51.538;6.728;2023-05-07T03:53:52;18.80;99.90
19085;DHT22;9675;51.538;6.728;2023-05-07T03:56:19;18.80;99.90
19085;DHT22;9675;51.538;6.728;2023-05-07T03:58:48;18.70;99.90
19085;DHT22;9675;51.538;6.728;2023-05-07T04:01:15;18.70;99.90
19085;DHT22;9675;51.538;6.728;2023-05-07T04:03:42;18.70;99.90
19085;DHT22;9675;51.538;6.728;2023-05-07T04:06:09;18.70;99.90
19085;DHT22;9675;51.538;6.728;2023-05-07T04:08:37;18.70;99.90
19085;DHT22;9675;51.538;6.728;2023-05-07T04:11:04;18.60;99.90
19085;DHT22;9675;51.538;6.728;2023-05-07T04:13:31;18.60;99.90
19085;DHT22;9675;51.538;6.728;2023-05-07T04:16:01;18.60;99.90
19085;DHT22;9675;51.538;6.728;2023-05-07T04:18:29;18.60;99.90
19085;DHT22;9675;51.538;6.728;2023-05-07T04:20:56;18.50;99.90
19085;DHT22;9675;51.538;6.728;2023-05-07T04:23:23;18.50;99.90
19085;DHT22;9675;51.538;6.728;2023-05-07T04:25:50;18.50;99.90
19085;DHT22;9675;51.538;6.728;2023-05-07T04:28:18;18.50;99.90
19085;DHT22;9675;51.538;6.728;2023-05-07T04:30:45;18.50;99.90
19085;DHT22;9675;51.538;6.728;2023-05-07T04:33:14;18.40;99.90
19085;DHT22;9675;51.538;6.728;2023-05-07T04:35:42;18.40;99.90
19085;DHT22;9675;51.538;6.728;2023-05-07T04:38:09;18.40;99.90
19085;DHT22;9675;51.538;6.728;2023-05-07T04:40:36;18.40;99.90
19085;DHT22;9675;51.538;6.728;2023-05-07T04:43:04;18.40;99.90
19085;DHT22;9675;51.538;6.728;2023-05-07T04:45:31;18.40;99.90
19085;DHT22;9675;51.538;6.728;2023-05-07T04:47:58;18.30;99.90
19085;DHT22;9675;51.538;6.728;2023-05-07T04:50:27;18.30;99.90
19085;DHT22;9675;51.538;6.728;2023-05-07T04:52:54;18.30;99.90
19085;DHT22;9675;51.538;6.728;2023-05-07T04:55:21;18.30;99.90
19085;DHT22;9675;51.538;6.728;2023-05-07T04:57:48;18.30;99.90
19085;DHT22;9675;51.538;6.728;2023-05-07T05:00:15;18.20;99.90
19085;DHT22;9675;51.538;6.728;2023-05-07T05:02:45;18.20;99.90
19085;DHT22;9675;51.538;6.728;2023-05-07T05:05:12;18.20;99.90
19085;DHT22;9675;51.538;6.728;2023-05-07T05:07:40;18.20;99.90
19085;DHT22;9675;51.538;6.728;2023-05-07T05:10:07;18.20;99.90
19085;DHT22;9675;51.538;6.728;2023-05-07T05:12:34;18.20;99.90
19085;DHT22;9675;51.538;6.728;2023-05-07T05:15:02;18.20;99.90
19085;DHT22;9675;51.538;6.728;2023-05-07T05:17:29;18.10;99.90
19085;DHT22;9675;51.538;6.728;2023-05-07T05:19:56;18.10;99.90
19085;DHT22;9675;51.538;6.728;2023-05-07T05:22:23;18.10;99.90
19085;DHT22;9675;51.538;6.728;2023-05-07T05:24:52;18.10;99.90
19085;DHT22;9675;51.538;6.728;2023-05-07T05:27:19;18.10;99.90
19085;DHT22;9675;51.538;6.728;2023-05-07T05:29:46;18.10;99.90
19085;DHT22;9675;51.538;6.728;2023-05-07T05:32:13;18.10;99.90
19085;DHT22;9675;51.538;6.728;2023-05-07T05:34:40;18.10;99.90
19085;DHT22;9675;51.538;6.728;2023-05-07T05:37:07;18.10;99.90
19085;DHT22;9675;51.538;6.728;2023-05-07T05:39:34;18.00;99.90
19085;DHT22;9675;51.538;6.728;2023-05-07T05:42:03;18.00;99.90
19085;DHT22;9675;51.538;6.728;2023-05-07T05:44:30;18.00;99.90
19085;DHT22;9675;51.538;6.728;2023-05-07T05:46:57;18.00;99.90
19085;DHT22;9675;51.538;6.728;2023-05-07T05:49:24;18.00;99.90
19085;DHT22;9675;51.538;6.728;2023-05-07T05:51:52;18.00;99.90
19085;DHT22;9675;51.538;6.728;2023-05-07T05:54:18;18.00;99.90
19085;DHT22;9675;51.538;6.728;2023-05-07T05:56:46;18.00;99.90
19085;DHT22;9675;51.538;6.728;2023-05-07T05:59:15;18.00;99.90
19085;DHT22;9675;51.538;6.728;2023-05-07T06:01:45;18.00;99.90
19085;DHT22;9675;51.538;6.728;2023-05-07T06:04:12;18.00;99.90
19085;DHT22;9675;51.538;6.728;2023-05-07T06:06:39;17.90;99.90
19085;DHT22;9675;51.538;6.728;2023-05-07T06:09:06;17.90;99.90
19085;DHT22;9675;51.538;6.728;2023-05-07T06:11:33;17.90;99.90
19085;DHT22;9675;51.538;6.728;2023-05-07T06:14:00;17.90;99.90
19085;DHT22;9675;51.538;6.728;2023-05-07T06:16:29;17.90;99.90
19085;DHT22;9675;51.538;6.728;2023-05-07T06:18:59;17.90;99.90
19085;DHT22;9675;51.538;6.728;2023-05-07T06:21:27;17.90;99.90
19085;DHT22;9675;51.538;6.728;2023-05-07T06:23:54;18.00;99.90
19085;DHT22;9675;51.538;6.728;2023-05-07T06:26:21;18.00;99.90
19085;DHT22;9675;51.538;6.728;2023-05-07T06:28:48;18.00;99.90
19085;DHT22;9675;51.538;6.728;2023-05-07T06:31:16;18.00;99.90
19085;DHT22;9675;51.538;6.728;2023-05-07T06:33:48;18.00;99.90
19085;DHT22;9675;51.538;6.728;2023-05-07T06:36:15;18.10;99.90
19085;DHT22;9675;51.538;6.728;2023-05-07T06:38:42;18.10;99.90
19085;DHT22;9675;51.538;6.728;2023-05-07T06:41:09;18.10;99.90
19085;DHT22;9675;51.538;6.728;2023-05-07T06:43:37;18.10;99.90
19085;DHT22;9675;51.538;6.728;2023-05-07T06:46:04;18.20;99.90
19085;DHT22;9675;51.538;6.728;2023-05-07T06:48:31;18.10;99.90
19085;DHT22;9675;51.538;6.728;2023-05-07T06:50:59;18.20;99.90
19085;DHT22;9675;51.538;6.728;2023-05-07T06:53:26;18.20;99.90
19085;DHT22;9675;51.538;6.728;2023-05-07T06:55:54;18.20;99.90
19085;DHT22;9675;51.538;6.728;2023-05-07T06:58:21;18.30;99.90
19085;DHT22;9675;51.538;6.728;2023-05-07T07:00:48;18.20;99.90
19085;DHT22;9675;51.538;6.728;2023-05-07T07:03:15;18.30;99.90
19085;DHT22;9675;51.538;6.728;2023-05-07T07:05:42;18.30;99.90
19085;DHT22;9675;51.538;6.728;2023-05-07T07:08:11;18.30;99.90
19085;DHT22;9675;51.538;6.728;2023-05-07T07:10:38;18.30;99.90
19085;DHT22;9675;51.538;6.728;2023-05-07T07:13:05;18.40;99.90
19085;DHT22;9675;51.538;6.728;2023-05-07T07:15:32;18.40;99.90
19085;DHT22;9675;51.538;6.728;2023-05-07T07:17:59;18.40;99.90
19085;DHT22;9675;51.538;6.728;2023-05-07T07:20:27;18.40;99.90
19085;DHT22;9675;51.538;6.728;2023-05-07T07:22:54;18.50;99.90
19085;DHT22;9675;51.538;6.728;2023-05-07T07:25:22;18.50;99.90
19085;DHT22;9675;51.538;6.728;2023-05-07T07:27:50;18.50;99.90
19085;DHT22;9675;51.538;6.728;2023-05-07T07:30:17;18.50;99.90
19085;DHT22;9675;51.538;6.728;2023-05-07T07:32:44;18.50;99.90
19085;DHT22;9675;51.538;6.728;2023-05-07T07:35:11;18.60;99.90
19085;DHT22;9675;51.538;6.728;2023-05-07T07:37:38;18.60;99.90
19085;DHT22;9675;51.538;6.728;2023-05-07T07:40:06;18.60;99.90
19085;DHT22;9675;51.538;6.728;2023-05-07T07:42:36;18.60;99.90
19085;DHT22;9675;51.538;6.728;2023-05-07T07:45:04;18.70;99.90
19085;DHT22;9675;51.538;6.728;2023-05-07T07:47:31;18.70;99.90
19085;DHT22;9675;51.538;6.728;2023-05-07T07:49:58;18.70;99.90
19085;DHT22;9675;51.538;6.728;2023-05-07T07:52:25;18.80;99.90
19085;DHT22;9675;51.538;6.728;2023-05-07T07:54:52;18.80;99.90
19085;DHT22;9675;51.538;6.728;2023-05-07T07:57:19;18.80;99.90
19085;DHT22;9675;51.538;6.728;2023-05-07T07:59:48;18.80;99.90
19085;DHT22;9675;51.538;6.728;2023-05-07T08:02:16;18.90;99.90
19085;DHT22;9675;51.538;6.728;2023-05-07T08:04:43;18.90;99.90
19085;DHT22;9675;51.538;6.728;2023-05-07T08:07:10;18.90;99.90
19085;DHT22;9675;51.538;6.728;2023-05-07T08:09:38;19.00;99.90
19085;DHT22;9675;51.538;6.728;2023-05-07T08:12:06;19.10;99.90
19085;DHT22;9675;51.538;6.728;2023-05-07T08:14:33;19.10;99.90
19085;DHT22;9675;51.538;6.728;2023-05-07T08:17:03;19.10;99.90
19085;DHT22;9675;51.538;6.728;2023-05-07T08:19:30;19.20;99.90
19085;DHT22;9675;51.538;6.728;2023-05-07T08:21:57;19.20;99.90
19085;DHT22;9675;51.538;6.728;2023-05-07T08:24:24;19.30;99.90
19085;DHT22;9675;51.538;6.728;2023-05-07T08:26:51;19.30;99.90
19085;DHT22;9675;51.538;6.728;2023-05-07T08:29:18;19.40;99.90
19085;DHT22;9675;51.538;6.728;2023-05-07T08:31:45;19.40;99.90
19085;DHT22;9675;51.538;6.728;2023-05-07T08:34:14;19.40;99.90
19085;DHT22;9675;51.538;6.728;2023-05-07T08:36:41;19.50;99.90
19085;DHT22;9675;51.538;6.728;2023-05-07T08:39:08;19.50;99.90
19085;DHT22;9675;51.538;6.728;2023-05-07T08:41:35;19.60;99.90
19085;DHT22;9675;51.538;6.728;2023-05-07T08:44:03;19.60;99.90
19085;DHT22;9675;51.538;6.728;2023-05-07T08:46:38;19.70;99.90
19085;DHT22;9675;51.538;6.728;2023-05-07T08:49:06;19.70;99.90
19085;DHT22;9675;51.538;6.728;2023-05-07T08:51:36;19.80;99.90
19085;DHT22;9675;51.538;6.728;2023-05-07T08:54:03;19.80;99.90
19085;DHT22;9675;51.538;6.728;2023-05-07T08:56:32;19.80;99.90
19085;DHT22;9675;51.538;6.728;2023-05-07T08:58:59;19.90;99.90
19085;DHT22;9675;51.538;6.728;2023-05-07T09:01:26;19.90;99.90
19085;DHT22;9675;51.538;6.728;2023-05-07T09:03:53;19.90;99.90
19085;DHT22;9675;51.538;6.728;2023-05-07T09:06:21;20.00;99.90
19085;DHT22;9675;51.538;6.728;2023-05-07T09:08:54;20.00;99.90
19085;DHT22;9675;51.538;6.728;2023-05-07T09:11:21;20.10;99.90
19085;DHT22;9675;51.538;6.728;2023-05-07T09:13:52;20.10;99.90
19085;DHT22;9675;51.538;6.728;2023-05-07T09:16:21;20.20;99.90
19085;DHT22;9675;51.538;6.728;2023-05-07T09:18:51;20.20;99.90
19085;DHT22;9675;51.538;6.728;2023-05-07T09:21:20;20.30;99.90
19085;DHT22;9675;51.538;6.728;2023-05-07T09:23:49;20.30;99.90
19085;DHT22;9675;51.538;6.728;2023-05-07T09:26:18;20.30;99.90
19085;DHT22;9675;51.538;6.728;2023-05-07T09:28:47;20.30;99.90
19085;DHT22;9675;51.538;6.728;2023-05-07T09:31:15;20.40;99.90
19085;DHT22;9675;51.538;6.728;2023-05-07T09:33:42;20.50;99.90
19085;DHT22;9675;51.538;6.728;2023-05-07T09:36:09;20.50;99.90
19085;DHT22;9675;51.538;6.728;2023-05-07T09:38:37;20.60;99.90
19085;DHT22;9675;51.538;6.728;2023-05-07T09:41:06;20.60;99.90
19085;DHT22;9675;51.538;6.728;2023-05-07T09:43:37;20.70;99.90
19085;DHT22;9675;51.538;6.728;2023-05-07T09:46:07;20.80;99.90
19085;DHT22;9675;51.538;6.728;2023-05-07T09:48:39;20.80;99.90
19085;DHT22;9675;51.538;6.728;2023-05-07T09:51:15;20.90;99.90
19085;DHT22;9675;51.538;6.728;2023-05-07T09:53:48;21.00;99.90
19085;DHT22;9675;51.538;6.728;2023-05-07T09:56:18;21.20;99.90
19085;DHT22;9675;51.538;6.728;2023-05-07T09:58:49;21.20;99.90
19085;DHT22;9675;51.538;6.728;2023-05-07T10:01:19;21.30;99.90
19085;DHT22;9675;51.538;6.728;2023-05-07T10:03:49;21.40;99.90
19085;DHT22;9675;51.538;6.728;2023-05-07T10:06:17;21.50;99.90
19085;DHT22;9675;51.538;6.728;2023-05-07T10:08:47;21.60;99.90
19085;DHT22;9675;51.538;6.728;2023-05-07T10:11:15;21.70;99.90
19085;DHT22;9675;51.538;6.728;2023-05-07T10:13:43;21.80;99.90
19085;DHT22;9675;51.538;6.728;2023-05-07T10:16:12;21.90;99.90
19085;DHT22;9675;51.538;6.728;2023-05-07T10:18:40;22.10;99.90
19085;DHT22;9675;51.538;6.728;2023-05-07T10:21:13;22.10;99.90
19085;DHT22;9675;51.538;6.728;2023-05-07T10:23:45;22.30;99.90
19085;DHT22;9675;51.538;6.728;2023-05-07T10:26:17;22.40;99.90
19085;DHT22;9675;51.538;6.728;2023-05-07T10:28:49;22.50;99.90
19085;DHT22;9675;51.538;6.728;2023-05-07T10:31:35;22.60;99.90
19085;DHT22;9675;51.538;6.728;2023-05-07T10:34:17;22.70;99.90
19085;DHT22;9675;51.538;6.728;2023-05-07T10:36:48;22.80;99.90
19085;DHT22;9675;51.538;6.728;2023-05-07T10:39:17;22.90;99.90
19085;DHT22;9675;51.538;6.728;2023-05-07T10:41:46;23.10;99.90
19085;DHT22;9675;51.538;6.728;2023-05-07T10:44:25;23.10;99.90
19085;DHT22;9675;51.538;6.728;2023-05-07T10:47:08;23.20;99.90
19085;DHT22;9675;51.538;6.728;2023-05-07T10:49:36;23.30;99.90
19085;DHT22;9675;51.538;6.728;2023-05-07T10:52:24;23.40;99.90
19085;DHT22;9675;51.538;6.728;2023-05-07T10:55:19;23.50;99.90
19085;DHT22;9675;51.538;6.728;2023-05-07T10:57:47;23.50;99.90
19085;DHT22;9675;51.538;6.728;2023-05-07T11:00:41;23.60;99.90
19085;DHT22;9675;51.538;6.728;2023-05-07T11:03:10;23.80;99.90
19085;DHT22;9675;51.538;6.728;2023-05-07T11:05:38;23.90;99.90
19085;DHT22;9675;51.538;6.728;2023-05-07T11:08:06;23.90;99.90
19085;DHT22;9675;51.538;6.728;2023-05-07T11:10:49;24.00;99.90
19085;DHT22;9675;51.538;6.728;2023-05-07T11:13:18;24.10;99.90
19085;DHT22;9675;51.538;6.728;2023-05-07T11:16:16;24.10;99.90
19085;DHT22;9675;51.538;6.728;2023-05-07T11:18:48;24.20;99.90
19085;DHT22;9675;51.538;6.728;2023-05-07T11:21:32;24.30;99.90
19085;DHT22;9675;51.538;6.728;2023-05-07T11:24:01;24.30;99.90
19085;DHT22;9675;51.538;6.728;2023-05-07T11:26:30;24.40;99.90
19085;DHT22;9675;51.538;6.728;2023-05-07T11:29:11;24.40;99.90
19085;DHT22;9675;51.538;6.728;2023-05-07T11:31:40;24.50;99.90
19085;DHT22;9675;51.538;6.728;2023-05-07T11:34:07;24.50;99.90
19085;DHT22;9675;51.538;6.728;2023-05-07T11:36:37;24.60;99.90
19085;DHT22;9675;51.538;6.728;2023-05-07T11:39:23;24.80;99.90
19085;DHT22;9675;51.538;6.728;2023-05-07T11:41:51;24.90;99.90
19085;DHT22;9675;51.538;6.728;2023-05-07T11:44:18;25.00;99.90
19085;DHT22;9675;51.538;6.728;2023-05-07T11:46:47;25.00;99.90
19085;DHT22;9675;51.538;6.728;2023-05-07T11:49:15;25.10;99.90
19085;DHT22;9675;51.538;6.728;2023-05-07T11:51:43;25.10;99.90
19085;DHT22;9675;51.538;6.728;2023-05-07T11:54:15;25.20;99.90
19085;DHT22;9675;51.538;6.728;2023-05-07T11:56:44;25.20;99.90
19085;DHT22;9675;51.538;6.728;2023-05-07T11:59:17;25.30;99.90
19085;DHT22;9675;51.538;6.728;2023-05-07T12:01:47;25.40;99.90
19085;DHT22;9675;51.538;6.728;2023-05-07T12:04:18;25.40;99.90
19085;DHT22;9675;51.538;6.728;2023-05-07T12:06:46;25.50;99.90
19085;DHT22;9675;51.538;6.728;2023-05-07T12:09:13;25.60;99.90
19085;DHT22;9675;51.538;6.728;2023-05-07T12:11:45;25.60;99.90
19085;DHT22;9675;51.538;6.728;2023-05-07T12:14:13;25.70;99.90
19085;DHT22;9675;51.538;6.728;2023-05-07T12:16:41;25.70;99.90
19085;DHT22;9675;51.538;6.728;2023-05-07T12:19:11;25.70;99.90
19085;DHT22;9675;51.538;6.728;2023-05-07T12:21:39;25.80;99.90
19085;DHT22;9675;51.538;6.728;2023-05-07T12:24:08;25.80;99.90
19085;DHT22;9675;51.538;6.728;2023-05-07T12:26:37;25.80;99.90
19085;DHT22;9675;51.538;6.728;2023-05-07T12:29:06;25.80;99.90
19085;DHT22;9675;51.538;6.728;2023-05-07T12:31:33;25.90;99.90
19085;DHT22;9675;51.538;6.728;2023-05-07T12:34:00;25.80;99.90
19085;DHT22;9675;51.538;6.728;2023-05-07T12:36:36;25.80;99.90
19085;DHT22;9675;51.538;6.728;2023-05-07T12:39:04;25.80;99.90
19085;DHT22;9675;51.538;6.728;2023-05-07T12:41:36;25.80;99.90
19085;DHT22;9675;51.538;6.728;2023-05-07T12:44:18;25.80;99.90
19085;DHT22;9675;51.538;6.728;2023-05-07T12:46:46;25.80;99.90
19085;DHT22;9675;51.538;6.728;2023-05-07T12:49:13;25.70;99.90
19085;DHT22;9675;51.538;6.728;2023-05-07T12:51:42;25.60;99.90
19085;DHT22;9675;51.538;6.728;2023-05-07T12:54:09;25.60;99.90
19085;DHT22;9675;51.538;6.728;2023-05-07T12:56:36;25.50;99.90
19085;DHT22;9675;51.538;6.728;2023-05-07T12:59:04;25.50;99.90
19085;DHT22;9675;51.538;6.728;2023-05-07T13:01:34;25.50;99.90
19085;DHT22;9675;51.538;6.728;2023-05-07T13:04:02;25.40;99.90
19085;DHT22;9675;51.538;6.728;2023-05-07T13:06:31;25.40;99.90
19085;DHT22;9675;51.538;6.728;2023-05-07T13:08:59;25.30;99.90
19085;DHT22;9675;51.538;6.728;2023-05-07T13:11:26;25.30;99.90
19085;DHT22;9675;51.538;6.728;2023-05-07T13:13:53;25.30;99.90
19085;DHT22;9675;51.538;6.728;2023-05-07T13:16:20;25.20;99.90
19085;DHT22;9675;51.538;6.728;2023-05-07T13:18:47;25.20;99.90
19085;DHT22;9675;51.538;6.728;2023-05-07T13:21:14;25.20;99.90
19085;DHT22;9675;51.538;6.728;2023-05-07T13:23:41;25.10;99.90
19085;DHT22;9675;51.538;6.728;2023-05-07T13:26:09;25.10;99.90
19085;DHT22;9675;51.538;6.728;2023-05-07T13:28:36;25.10;99.90
19085;DHT22;9675;51.538;6.728;2023-05-07T13:31:03;25.10;99.90
19085;DHT22;9675;51.538;6.728;2023-05-07T13:33:30;25.00;99.90
19085;DHT22;9675;51.538;6.728;2023-05-07T13:35:57;25.00;99.90
19085;DHT22;9675;51.538;6.728;2023-05-07T13:38:26;25.00;99.90
19085;DHT22;9675;51.538;6.728;2023-05-07T13:40:53;25.00;99.90
19085;DHT22;9675;51.538;6.728;2023-05-07T13:43:21;25.00;99.90
19085;DHT22;9675;51.538;6.728;2023-05-07T13:45:48;25.00;99.90
19085;DHT22;9675;51.538;6.728;2023-05-07T13:48:15;25.00;99.90
19085;DHT22;9675;51.538;6.728;2023-05-07T13:50:42;25.00;99.90
19085;DHT22;9675;51.538;6.728;2023-05-07T13:53:09;25.00;99.90
19085;DHT22;9675;51.538;6.728;2023-05-07T13:55:36;24.90;99.90
19085;DHT22;9675;51.538;6.728;2023-05-07T13:58:03;24.90;99.90
19085;DHT22;9675;51.538;6.728;2023-05-07T14:00:32;24.90;99.90
19085;DHT22;9675;51.538;6.728;2023-05-07T14:02:59;24.90;99.90
19085;DHT22;9675;51.538;6.728;2023-05-07T14:05:26;24.80;99.90
19085;DHT22;9675;51.538;6.728;2023-05-07T14:07:53;24.80;99.90
19085;DHT22;9675;51.538;6.728;2023-05-07T14:10:20;24.80;99.90
19085;DHT22;9675;51.538;6.728;2023-05-07T14:12:47;24.80;99.90
19085;DHT22;9675;51.538;6.728;2023-05-07T14:15:15;24.80;99.90
19085;DHT22;9675;51.538;6.728;2023-05-07T14:17:44;24.70;99.90
19085;DHT22;9675;51.538;6.728;2023-05-07T14:20:12;24.70;99.90
19085;DHT22;9675;51.538;6.728;2023-05-07T14:22:39;24.60;99.90
19085;DHT22;9675;51.538;6.728;2023-05-07T14:25:07;24.60;99.90
19085;DHT22;9675;51.538;6.728;2023-05-07T14:27:36;24.60;99.90
19085;DHT22;9675;51.538;6.728;2023-05-07T14:30:03;24.60;99.90
19085;DHT22;9675;51.538;6.728;2023-05-07T14:32:31;24.50;99.90
19085;DHT22;9675;51.538;6.728;2023-05-07T14:35:00;24.50;99.90
19085;DHT22;9675;51.538;6.728;2023-05-07T14:37:27;24.40;99.90
19085;DHT22;9675;51.538;6.728;2023-05-07T14:39:54;24.40;99.90
19085;DHT22;9675;51.538;6.728;2023-05-07T14:42:21;24.30;99.90
19085;DHT22;9675;51.538;6.728;2023-05-07T14:44:48;24.30;99.90
19085;DHT22;9675;51.538;6.728;2023-05-07T14:47:15;24.30;99.90
19085;DHT22;9675;51.538;6.728;2023-05-07T14:49:42;24.20;99.90
19085;DHT22;9675;51.538;6.728;2023-05-07T14:52:10;24.20;99.90
19085;DHT22;9675;51.538;6.728;2023-05-07T14:54:38;24.10;99.90
19085;DHT22;9675;51.538;6.728;2023-05-07T14:57:05;24.10;99.90
19085;DHT22;9675;51.538;6.728;2023-05-07T14:59:33;24.00;99.90
19085;DHT22;9675;51.538;6.728;2023-05-07T15:02:00;24.00;99.90
19085;DHT22;9675;51.538;6.728;2023-05-07T15:04:27;23.90;99.90
19085;DHT22;9675;51.538;6.728;2023-05-07T15:06:54;23.90;99.90
19085;DHT22;9675;51.538;6.728;2023-05-07T15:09:23;23.90;99.90
19085;DHT22;9675;51.538;6.728;2023-05-07T15:11:50;23.80;99.90
19085;DHT22;9675;51.538;6.728;2023-05-07T15:14:17;23.80;99.90
19085;DHT22;9675;51.538;6.728;2023-05-07T15:16:45;23.70;99.90
19085;DHT22;9675;51.538;6.728;2023-05-07T15:19:12;23.70;99.90
19085;DHT22;9675;51.538;6.728;2023-05-07T15:21:40;23.60;99.90
19085;DHT22;9675;51.538;6.728;2023-05-07T15:24:07;23.60;99.90
19085;DHT22;9675;51.538;6.728;2023-05-07T15:26:36;23.50;99.90
19085;DHT22;9675;51.538;6.728;2023-05-07T15:29:03;23.50;99.90
19085;DHT22;9675;51.538;6.728;2023-05-07T15:31:35;23.40;99.90
19085;DHT22;9675;51.538;6.728;2023-05-07T15:34:04;23.40;99.90
19085;DHT22;9675;51.538;6.728;2023-05-07T15:36:31;23.30;99.90
19085;DHT22;9675;51.538;6.728;2023-05-07T15:38:58;23.30;99.90
19085;DHT22;9675;51.538;6.728;2023-05-07T15:41:27;23.20;99.90
19085;DHT22;9675;51.538;6.728;2023-05-07T15:43:56;23.10;99.90
19085;DHT22;9675;51.538;6.728;2023-05-07T15:46:24;23.10;99.90
19085;DHT22;9675;51.538;6.728;2023-05-07T15:48:52;23.00;99.90
19085;DHT22;9675;51.538;6.728;2023-05-07T15:51:19;23.00;99.90
19085;DHT22;9675;51.538;6.728;2023-05-07T15:53:47;23.00;99.90